This is the latest recevied weather packets stored in our database for station/object DL3CSM-13. If no packets are shown the sender has not sent any weather packets the latest 1 day(s).
| Time | Temp. | Humidity | Pressure | Rain* | Wind** | Luminosity | Snow |
|---|---|---|---|---|---|---|---|
| 1778027411 | 11.11° C | 82% | 1009.1 hPa | 0 mm | 0.45 m/s, 202° | - | - |
| 1778026511 | 11.67° C | 80% | 1009.2 hPa | 0 mm | 0 m/s | - | - |
| 1778025611 | 11.67° C | 80% | 1009.5 hPa | 0 mm | 0.45 m/s, 222° | - | - |
| 1778024711 | 12.22° C | 80% | 1009.5 hPa | 0 mm | 0.89 m/s, 232° | - | - |
| 1778023811 | 12.22° C | 80% | 1009.7 hPa | 0 mm | 0.89 m/s, 229° | - | - |
| 1778022911 | 12.78° C | 78% | 1009.9 hPa | 0 mm | 0.89 m/s, 209° | - | - |
| 1778022011 | 13.33° C | 77% | 1009.8 hPa | 0 mm | 1.34 m/s, 203° | - | - |
| 1778021111 | 13.33° C | 80% | 1009.8 hPa | 0 mm | 0.89 m/s, 206° | - | - |
| 1778020216 | 13.33° C | 80% | 1009.6 hPa | 0 mm | 1.79 m/s, 198° | - | - |
| 1778019311 | 13.33° C | 80% | 1009.5 hPa | 0 mm | 1.79 m/s, 203° | - | - |
| 1778018411 | 13.89° C | 77% | 1009.6 hPa | 0 mm | 0.89 m/s, 220° | - | - |
| 1778017511 | 13.89° C | 75% | 1009.5 hPa | 0 mm | 1.34 m/s, 213° | - | - |
| 1778016611 | 14.44° C | 74% | 1009.7 hPa | 0 mm | 1.34 m/s, 222° | - | - |
| 1778014811 | 15° C | 72% | 1009.6 hPa | 0 mm | 1.34 m/s, 227° | - | - |
| 1778012111 | 15° C | 71% | 1008.9 hPa | 0 mm | 0.89 m/s, 218° | - | - |
| 1778010311 | 14.44° C | 71% | 1008.2 hPa | 0 mm | 0.89 m/s, 222° | - | - |
| 1778009411 | 15° C | 71% | 1007.6 hPa | 0 mm | 0 m/s | - | - |
| 1778008511 | 15° C | 70% | 1007.3 hPa | 0 mm | 0 m/s | - | - |
| 1778006711 | 15.56° C | 68% | 1007.3 hPa | 0 mm | 0.45 m/s, 342° | - | - |
| 1778004911 | 15.56° C | 67% | 1007.4 hPa | 0 mm | 1.34 m/s, 226° | - | - |
| 1778002211 | 17.22° C | 62% | 1006.9 hPa | 0 mm | 0.45 m/s, 331° | - | - |
| 1778001311 | 17.22° C | 63% | 1006.9 hPa | 0 mm | 0 m/s | - | - |
| 1778000411 | 17.78° C | 64% | 1006.8 hPa | 0.25 mm | 0 m/s | - | - |
| 1777999511 | 17.22° C | 67% | 1006.9 hPa | 0.25 mm | 0 m/s | - | - |
| 1777998611 | 16.67° C | 73% | 1007 hPa | 0.25 mm | 0 m/s | - | - |
* Rain latest hour (hover to see other rain measurements)
** Current wind speed in m/s (hover to see current wind gust speed)